Time;durP1;ratioP1;P1;durP2;ratioP2;P2;SDS_P1;SDS_P2;PMS_P1;PMS_P2;Temp;Humidity;BMP_temperature;BMP_pressure;BME280_temperature;BME280_humidity;BME280_pressure;Samples;Min_cycle;Max_cycle;Signal;HPM_P1;HPM_P2
2023/04/13 00:02:13;;;;;;;;;;;7.30;76.10;;;;;;5055356;28;20024;-85
2023/04/13 00:04:41;;;;;;;;;;;7.60;75.40;;;;;;5052438;28;20390;-85
2023/04/13 00:07:13;;;;;;;;;;;7.50;75.40;;;;;;5050901;28;20348;-85
2023/04/13 00:09:39;;;;;;;;;;;7.60;75.30;;;;;;5049003;28;19915;-84
2023/04/13 00:12:04;;;;;;;;;;;7.70;73.80;;;;;;5051029;28;20289;-84
2023/04/13 00:14:33;;;;;;;;;;;7.60;74.20;;;;;;5049493;28;19909;-85
2023/04/13 00:16:58;;;;;;;;;;;7.50;75.10;;;;;;5052101;28;19913;-85
2023/04/13 00:19:24;;;;;;;;;;;7.60;74.20;;;;;;5057174;28;19909;-85
2023/04/13 00:21:52;;;;;;;;;;;7.50;74.90;;;;;;5055512;28;19999;-85
2023/04/13 00:24:18;;;;;;;;;;;7.50;75.20;;;;;;5055505;28;19924;-85
2023/04/13 00:26:44;;;;;;;;;;;7.50;75.30;;;;;;5049992;28;20274;-85
2023/04/13 00:29:10;;;;;;;;;;;7.60;74.80;;;;;;5051571;28;19935;-85
2023/04/13 00:31:36;;;;;;;;;;;7.70;74.60;;;;;;5050370;28;19913;-85
2023/04/13 00:34:02;;;;;;;;;;;7.60;74.20;;;;;;5050236;28;21029;-85
2023/04/13 00:36:28;;;;;;;;;;;7.60;74.30;;;;;;5051103;28;19916;-85
2023/04/13 00:38:56;;;;;;;;;;;7.50;75.10;;;;;;5051450;28;19908;-84
2023/04/13 00:41:25;;;;;;;;;;;7.60;74.60;;;;;;5050550;28;20373;-85
2023/04/13 00:43:51;;;;;;;;;;;7.60;74.70;;;;;;5049207;28;20290;-84
2023/04/13 00:46:17;;;;;;;;;;;7.80;74.10;;;;;;5043713;28;19924;-85
2023/04/13 00:48:44;;;;;;;;;;;7.80;74.00;;;;;;5051433;28;19913;-85
2023/04/13 00:51:10;;;;;;;;;;;7.80;74.00;;;;;;5053936;28;19916;-85
2023/04/13 00:53:36;;;;;;;;;;;7.80;74.40;;;;;;5054487;28;20378;-85
2023/04/13 00:56:04;;;;;;;;;;;7.90;74.70;;;;;;5053660;28;19909;-84
2023/04/13 00:58:31;;;;;;;;;;;8.00;74.10;;;;;;5051750;28;19933;-85
2023/04/13 01:00:56;;;;;;;;;;;7.80;75.00;;;;;;5066921;28;19917;-85
2023/04/13 01:03:21;;;;;;;;;;;7.80;76.40;;;;;;5051736;28;19920;-86
2023/04/13 01:06:06;;;;;;;;;;;7.70;77.00;;;;;;5051243;28;19913;-85
2023/04/13 01:08:38;;;;;;;;;;;7.60;78.70;;;;;;5046481;28;19963;-85
2023/04/13 01:11:12;;;;;;;;;;;7.80;78.70;;;;;;5053783;28;19920;-85
2023/04/13 01:13:41;;;;;;;;;;;7.50;79.20;;;;;;5053341;28;19996;-85
2023/04/13 01:16:17;;;;;;;;;;;7.40;80.50;;;;;;5052724;28;20378;-85
2023/04/13 01:18:44;;;;;;;;;;;7.30;80.80;;;;;;5056352;28;19955;-85
2023/04/13 01:21:11;;;;;;;;;;;7.40;81.30;;;;;;5053407;28;20443;-85
2023/04/13 01:23:40;;;;;;;;;;;7.30;81.60;;;;;;5051847;28;19912;-86
2023/04/13 01:26:06;;;;;;;;;;;7.30;81.50;;;;;;5053478;28;19932;-85
2023/04/13 01:28:32;;;;;;;;;;;7.30;81.30;;;;;;5052879;28;20382;-85
2023/04/13 01:31:00;;;;;;;;;;;7.40;81.40;;;;;;5055547;28;20298;-86
2023/04/13 01:33:28;;;;;;;;;;;7.40;81.20;;;;;;5058025;28;19916;-86
2023/04/13 01:35:54;;;;;;;;;;;7.50;81.10;;;;;;5051492;28;19913;-86
2023/04/13 01:38:25;;;;;;;;;;;7.30;82.30;;;;;;5046789;28;19916;-87
2023/04/13 01:40:51;;;;;;;;;;;7.20;83.00;;;;;;5052172;28;19944;-85
2023/04/13 01:43:17;;;;;;;;;;;7.20;82.30;;;;;;5057010;28;19932;-86
2023/04/13 01:46:03;;;;;;;;;;;7.10;82.50;;;;;;5056629;28;19913;-86
2023/04/13 01:48:44;;;;;;;;;;;7.20;82.80;;;;;;5051395;28;19909;-86
2023/04/13 01:51:15;;;;;;;;;;;7.20;81.60;;;;;;5054138;28;19916;-85
2023/04/13 01:53:52;;;;;;;;;;;7.40;81.40;;;;;;5061637;28;19992;-85
2023/04/13 01:56:18;;;;;;;;;;;7.20;82.00;;;;;;5057975;28;19920;-85
2023/04/13 01:58:46;;;;;;;;;;;7.20;81.80;;;;;;5055952;28;20428;-85
2023/04/13 02:01:11;;;;;;;;;;;7.30;81.40;;;;;;5055663;28;19924;-85
2023/04/13 02:03:37;;;;;;;;;;;7.30;81.30;;;;;;5055550;28;19916;-85
2023/04/13 02:06:03;;;;;;;;;;;7.30;81.70;;;;;;5056634;28;19920;-85
2023/04/13 02:08:30;;;;;;;;;;;7.30;81.60;;;;;;5056752;28;19909;-86
2023/04/13 02:10:56;;;;;;;;;;;7.30;81.70;;;;;;5056343;28;20330;-85
2023/04/13 02:13:22;;;;;;;;;;;7.30;81.20;;;;;;5054754;28;19963;-85
2023/04/13 02:15:47;;;;;;;;;;;7.50;80.80;;;;;;5055807;28;19917;-85
2023/04/13 02:18:13;;;;;;;;;;;7.50;81.20;;;;;;5055539;28;19909;-85
2023/04/13 02:20:42;;;;;;;;;;;7.40;81.50;;;;;;5053841;28;19983;-85
2023/04/13 02:23:09;;;;;;;;;;;7.40;81.40;;;;;;5053642;28;19912;-85
2023/04/13 02:25:35;;;;;;;;;;;7.30;81.90;;;;;;5052825;28;19913;-85
2023/04/13 02:28:00;;;;;;;;;;;7.30;81.50;;;;;;5052079;28;19916;-84
2023/04/13 02:30:26;;;;;;;;;;;7.30;82.20;;;;;;5048808;28;20285;-85
2023/04/13 02:32:53;;;;;;;;;;;7.20;82.60;;;;;;5051899;28;19913;-85
2023/04/13 02:35:19;;;;;;;;;;;7.30;82.70;;;;;;5056265;28;19919;-84
2023/04/13 02:37:45;;;;;;;;;;;7.30;82.10;;;;;;5055327;28;20446;-85
2023/04/13 02:40:11;;;;;;;;;;;7.30;81.90;;;;;;5054717;28;19968;-85
2023/04/13 02:42:37;;;;;;;;;;;7.40;82.00;;;;;;5054393;28;19945;-85
2023/04/13 02:45:03;;;;;;;;;;;7.50;80.90;;;;;;5054053;28;20370;-84
2023/04/13 02:47:28;;;;;;;;;;;7.50;81.00;;;;;;5055274;28;20015;-85
2023/04/13 02:49:54;;;;;;;;;;;7.50;80.40;;;;;;5049753;28;19917;-84
2023/04/13 02:52:20;;;;;;;;;;;7.60;80.30;;;;;;5052201;28;19978;-84
2023/04/13 02:54:46;;;;;;;;;;;7.60;79.70;;;;;;5052712;28;19967;-84
2023/04/13 02:57:12;;;;;;;;;;;7.60;80.20;;;;;;5052501;28;20386;-84
2023/04/13 02:59:38;;;;;;;;;;;7.60;79.20;;;;;;5051265;28;19965;-84
2023/04/13 03:02:03;;;;;;;;;;;7.60;79.30;;;;;;5052422;28;19924;-84
2023/04/13 03:04:29;;;;;;;;;;;7.60;79.70;;;;;;5051787;28;19909;-84
2023/04/13 03:06:55;;;;;;;;;;;7.60;80.50;;;;;;5051873;28;19913;-84
2023/04/13 03:09:22;;;;;;;;;;;7.60;80.20;;;;;;5053783;28;19971;-85
2023/04/13 03:11:48;;;;;;;;;;;7.50;80.80;;;;;;5055709;28;19909;-85
2023/04/13 03:14:19;;;;;;;;;;;7.50;81.20;;;;;;5053002;28;19997;-84
2023/04/13 03:16:45;;;;;;;;;;;7.50;81.10;;;;;;5050849;28;19917;-85
2023/04/13 03:19:10;;;;;;;;;;;7.40;81.10;;;;;;5050802;28;19909;-84
2023/04/13 03:21:36;;;;;;;;;;;7.40;81.10;;;;;;5052644;28;19913;-85
2023/04/13 03:24:01;;;;;;;;;;;7.50;81.70;;;;;;5053000;28;19913;-84
2023/04/13 03:26:27;;;;;;;;;;;7.40;82.10;;;;;;5051414;28;19963;-85
2023/04/13 03:28:52;;;;;;;;;;;7.40;81.90;;;;;;5052958;28;19912;-85
2023/04/13 03:31:18;;;;;;;;;;;7.30;82.60;;;;;;5052309;28;19958;-84
2023/04/13 03:33:44;;;;;;;;;;;7.30;82.80;;;;;;5052246;28;19935;-85
2023/04/13 03:36:09;;;;;;;;;;;7.20;83.10;;;;;;5048009;28;20366;-85
2023/04/13 03:38:35;;;;;;;;;;;7.30;83.70;;;;;;5050213;28;20028;-85
2023/04/13 03:41:00;;;;;;;;;;;7.20;83.40;;;;;;5052224;28;19921;-85
2023/04/13 03:43:26;;;;;;;;;;;7.30;84.00;;;;;;5052503;28;20007;-85
2023/04/13 03:45:52;;;;;;;;;;;7.30;83.60;;;;;;5051790;28;20377;-84
2023/04/13 03:48:17;;;;;;;;;;;7.30;83.40;;;;;;5051451;28;19967;-85
2023/04/13 03:50:43;;;;;;;;;;;7.30;83.40;;;;;;5049819;28;19917;-84
2023/04/13 03:53:09;;;;;;;;;;;7.20;83.80;;;;;;5051549;28;20397;-84
2023/04/13 03:55:34;;;;;;;;;;;7.20;83.30;;;;;;5054923;28;19966;-84
2023/04/13 03:58:00;;;;;;;;;;;7.20;83.30;;;;;;5054381;28;19909;-83
2023/04/13 04:00:26;;;;;;;;;;;7.30;83.30;;;;;;5049100;28;19974;-84
2023/04/13 04:02:51;;;;;;;;;;;7.40;82.60;;;;;;5052287;28;20283;-84
2023/04/13 04:05:17;;;;;;;;;;;7.40;82.30;;;;;;5050279;28;19920;-84
2023/04/13 04:07:42;;;;;;;;;;;7.50;82.10;;;;;;5050991;28;20397;-84
2023/04/13 04:10:08;;;;;;;;;;;7.50;82.30;;;;;;5048439;28;19913;-83
2023/04/13 04:12:33;;;;;;;;;;;7.50;82.00;;;;;;5052650;28;19913;-84
2023/04/13 04:14:59;;;;;;;;;;;7.50;82.10;;;;;;5052479;28;20396;-83
2023/04/13 04:17:24;;;;;;;;;;;7.60;81.20;;;;;;5054458;28;19908;-84
2023/04/13 04:19:50;;;;;;;;;;;7.60;81.30;;;;;;5051848;28;20008;-84
2023/04/13 04:22:15;;;;;;;;;;;7.60;81.80;;;;;;5052309;28;20293;-85
2023/04/13 04:24:41;;;;;;;;;;;7.60;81.70;;;;;;5052021;28;19916;-85
2023/04/13 04:27:06;;;;;;;;;;;7.50;81.80;;;;;;5052396;28;20319;-85
2023/04/13 04:29:34;;;;;;;;;;;7.50;82.20;;;;;;5051684;28;19955;-85
2023/04/13 04:32:00;;;;;;;;;;;7.50;81.90;;;;;;5051144;28;20003;-84
2023/04/13 04:34:27;;;;;;;;;;;7.50;82.00;;;;;;5051904;28;19959;-85
2023/04/13 04:36:52;;;;;;;;;;;7.40;82.50;;;;;;5052053;28;19971;-84
2023/04/13 04:39:22;;;;;;;;;;;7.50;82.50;;;;;;5051723;28;20355;-83
2023/04/13 04:41:54;;;;;;;;;;;7.60;82.20;;;;;;5046476;28;19917;-83
2023/04/13 04:44:23;;;;;;;;;;;7.50;82.40;;;;;;5053932;28;19916;-84
2023/04/13 04:46:51;;;;;;;;;;;7.50;82.80;;;;;;5051774;28;19909;-84
2023/04/13 04:49:17;;;;;;;;;;;7.50;82.50;;;;;;5050596;28;19987;-83
2023/04/13 04:51:43;;;;;;;;;;;7.50;82.80;;;;;;5066950;28;20401;-84
2023/04/13 04:54:08;;;;;;;;;;;7.50;83.40;;;;;;5050131;28;19952;-83
2023/04/13 04:56:34;;;;;;;;;;;7.40;83.30;;;;;;5050355;28;19920;-84
2023/04/13 04:58:59;;;;;;;;;;;7.50;82.90;;;;;;5050158;28;19908;-85
2023/04/13 05:01:25;;;;;;;;;;;7.50;83.40;;;;;;5049854;28;20007;-83
2023/04/13 05:03:51;;;;;;;;;;;7.50;83.90;;;;;;5051240;28;19913;-84
2023/04/13 05:06:17;;;;;;;;;;;7.30;83.90;;;;;;5054453;28;19936;-83
2023/04/13 05:08:43;;;;;;;;;;;7.30;84.30;;;;;;5054441;28;19917;-83
2023/04/13 05:11:09;;;;;;;;;;;7.40;84.60;;;;;;5053112;28;19916;-83
2023/04/13 05:13:34;;;;;;;;;;;7.40;84.90;;;;;;5055532;28;19917;-83
2023/04/13 05:16:00;;;;;;;;;;;7.30;84.90;;;;;;5058178;28;19955;-85
2023/04/13 05:18:26;;;;;;;;;;;7.30;85.00;;;;;;5057045;28;19938;-84
2023/04/13 05:20:51;;;;;;;;;;;7.30;85.30;;;;;;5056450;28;19913;-85
2023/04/13 05:23:17;;;;;;;;;;;7.30;85.10;;;;;;5057852;28;19913;-84
2023/04/13 05:25:43;;;;;;;;;;;7.30;85.40;;;;;;5054413;28;19944;-84
2023/04/13 05:28:09;;;;;;;;;;;7.30;85.40;;;;;;5049447;28;19916;-83
2023/04/13 05:30:35;;;;;;;;;;;7.40;85.40;;;;;;5056041;28;19917;-84
2023/04/13 05:33:04;;;;;;;;;;;7.40;84.90;;;;;;5056398;28;19913;-84
2023/04/13 05:35:30;;;;;;;;;;;7.40;84.90;;;;;;5057210;28;19967;-84
2023/04/13 05:37:55;;;;;;;;;;;7.50;85.00;;;;;;5072189;28;20378;-84
2023/04/13 05:40:21;;;;;;;;;;;7.60;84.70;;;;;;5056023;28;20462;-83
2023/04/13 05:42:46;;;;;;;;;;;7.60;84.40;;;;;;5054370;28;19970;-84
2023/04/13 05:45:15;;;;;;;;;;;7.60;84.40;;;;;;5054592;28;19916;-83
2023/04/13 05:47:41;;;;;;;;;;;7.70;84.40;;;;;;5056774;28;19916;-84
2023/04/13 05:50:07;;;;;;;;;;;7.80;84.00;;;;;;5055310;28;19917;-84
2023/04/13 05:52:32;;;;;;;;;;;7.80;83.90;;;;;;5062004;28;19948;-83
2023/04/13 05:54:58;;;;;;;;;;;7.90;84.00;;;;;;5060169;28;20318;-84
2023/04/13 05:57:23;;;;;;;;;;;8.00;83.10;;;;;;5050344;28;19909;-84
2023/04/13 05:59:49;;;;;;;;;;;8.00;83.10;;;;;;5053943;28;19974;-84
2023/04/13 06:02:15;;;;;;;;;;;8.00;83.50;;;;;;5055974;28;20287;-84
2023/04/13 06:04:40;;;;;;;;;;;8.00;83.50;;;;;;5055660;28;19920;-82
2023/04/13 06:07:06;;;;;;;;;;;8.00;83.50;;;;;;5053350;28;19915;-82
2023/04/13 06:09:31;;;;;;;;;;;8.10;82.90;;;;;;5054175;28;19935;-83
2023/04/13 06:11:57;;;;;;;;;;;8.10;83.30;;;;;;5066701;28;20007;-83
2023/04/13 06:14:23;;;;;;;;;;;8.00;83.00;;;;;;5050650;28;19952;-83
2023/04/13 06:16:49;;;;;;;;;;;8.00;82.90;;;;;;5049834;28;19913;-83
2023/04/13 06:19:15;;;;;;;;;;;8.10;83.30;;;;;;5054659;28;19916;-83
2023/04/13 06:21:40;;;;;;;;;;;8.10;83.00;;;;;;5054535;28;19974;-83
2023/04/13 06:24:06;;;;;;;;;;;8.10;83.00;;;;;;5052094;28;19920;-83
2023/04/13 06:26:32;;;;;;;;;;;8.20;82.80;;;;;;5052762;28;19913;-83
2023/04/13 06:28:58;;;;;;;;;;;8.20;82.70;;;;;;5052374;28;19948;-83
2023/04/13 06:31:26;;;;;;;;;;;8.30;81.60;;;;;;5051416;28;19955;-84
2023/04/13 06:33:51;;;;;;;;;;;8.30;81.50;;;;;;5053109;28;20011;-83
2023/04/13 06:36:17;;;;;;;;;;;8.40;81.90;;;;;;5049430;28;19979;-85
2023/04/13 06:38:42;;;;;;;;;;;8.50;81.60;;;;;;5052891;28;19912;-83
2023/04/13 06:41:07;;;;;;;;;;;8.60;80.40;;;;;;5053628;28;19940;-83
2023/04/13 06:43:33;;;;;;;;;;;8.70;80.10;;;;;;5053213;28;19912;-84
2023/04/13 06:45:59;;;;;;;;;;;8.70;80.30;;;;;;5051794;28;19908;-84
2023/04/13 06:48:25;;;;;;;;;;;8.80;79.60;;;;;;5051884;28;19936;-85
2023/04/13 06:50:51;;;;;;;;;;;8.60;79.30;;;;;;5054078;28;20389;-84
2023/04/13 06:53:16;;;;;;;;;;;8.60;79.50;;;;;;5053741;28;19909;-84
2023/04/13 06:55:43;;;;;;;;;;;8.70;79.80;;;;;;5052737;28;20326;-83
2023/04/13 06:58:10;;;;;;;;;;;8.70;78.70;;;;;;5051384;28;19948;-83
2023/04/13 07:00:36;;;;;;;;;;;8.70;78.50;;;;;;5054355;28;19917;-84
2023/04/13 07:03:01;;;;;;;;;;;8.60;77.70;;;;;;5052385;28;19913;-84
2023/04/13 07:05:28;;;;;;;;;;;8.60;77.60;;;;;;5051521;28;19913;-84
2023/04/13 07:07:53;;;;;;;;;;;8.60;78.00;;;;;;5050987;28;19967;-84
2023/04/13 07:10:19;;;;;;;;;;;8.70;78.10;;;;;;5053061;28;19909;-84
2023/04/13 07:12:44;;;;;;;;;;;8.80;78.40;;;;;;5051801;28;19975;-84
2023/04/13 07:15:10;;;;;;;;;;;8.90;77.70;;;;;;5050802;28;20368;-84
2023/04/13 07:17:35;;;;;;;;;;;8.90;77.00;;;;;;5050839;28;19920;-84
2023/04/13 07:20:01;;;;;;;;;;;8.80;77.60;;;;;;5041412;28;19932;-84
2023/04/13 07:22:31;;;;;;;;;;;8.80;77.10;;;;;;5053352;28;20282;-84
2023/04/13 07:24:56;;;;;;;;;;;8.90;77.50;;;;;;5055009;28;19908;-85
2023/04/13 07:27:22;;;;;;;;;;;9.00;77.60;;;;;;5053730;28;20266;-85
2023/04/13 07:29:50;;;;;;;;;;;9.10;76.90;;;;;;5052421;28;20411;-84
2023/04/13 07:32:15;;;;;;;;;;;9.10;77.00;;;;;;5053132;28;19993;-83
2023/04/13 07:34:40;;;;;;;;;;;9.10;76.30;;;;;;5069209;28;19912;-85
2023/04/13 07:37:06;;;;;;;;;;;9.20;75.00;;;;;;5051586;28;19909;-85
2023/04/13 07:39:32;;;;;;;;;;;9.10;75.20;;;;;;5051803;28;19920;-84
2023/04/13 07:41:57;;;;;;;;;;;9.10;76.10;;;;;;5053522;28;20019;-84
2023/04/13 07:44:23;;;;;;;;;;;9.20;75.50;;;;;;5052031;28;20404;-85
2023/04/13 07:46:48;;;;;;;;;;;9.30;75.60;;;;;;5052962;28;20401;-85
2023/04/13 07:49:13;;;;;;;;;;;9.40;75.90;;;;;;5051356;28;19921;-84
2023/04/13 07:51:39;;;;;;;;;;;9.60;75.30;;;;;;5053165;28;20353;-84
2023/04/13 07:54:05;;;;;;;;;;;9.70;73.80;;;;;;5051395;28;20286;-84
2023/04/13 07:56:30;;;;;;;;;;;9.80;74.60;;;;;;5054362;28;20397;-84
2023/04/13 07:58:56;;;;;;;;;;;9.80;72.90;;;;;;5038660;28;19919;-84
2023/04/13 08:01:21;;;;;;;;;;;9.90;73.30;;;;;;5051416;28;19913;-84
2023/04/13 08:03:47;;;;;;;;;;;9.90;73.50;;;;;;5048100;28;19944;-84
2023/04/13 08:06:12;;;;;;;;;;;9.80;73.10;;;;;;5050834;28;19909;-84
2023/04/13 08:08:38;;;;;;;;;;;9.80;73.50;;;;;;5051533;28;19975;-85
2023/04/13 08:11:03;;;;;;;;;;;9.70;72.30;;;;;;5051849;28;19909;-84
2023/04/13 08:13:29;;;;;;;;;;;9.70;72.80;;;;;;5052057;28;19909;-85
2023/04/13 08:15:56;;;;;;;;;;;9.70;73.50;;;;;;5050934;28;19912;-84
2023/04/13 08:18:31;;;;;;;;;;;9.60;74.30;;;;;;5042516;28;19909;-83
2023/04/13 08:20:57;;;;;;;;;;;9.40;74.40;;;;;;5065075;28;20311;-84
2023/04/13 08:23:23;;;;;;;;;;;9.40;74.60;;;;;;5052570;28;20378;-85
2023/04/13 08:25:48;;;;;;;;;;;9.40;74.90;;;;;;5053838;28;19976;-82
2023/04/13 08:28:14;;;;;;;;;;;9.30;75.10;;;;;;5050752;28;19908;-85
2023/04/13 08:30:40;;;;;;;;;;;9.30;75.80;;;;;;5048616;28;20022;-82
2023/04/13 08:33:05;;;;;;;;;;;9.30;75.40;;;;;;5049840;28;19913;-83
2023/04/13 08:35:31;;;;;;;;;;;9.30;75.20;;;;;;5051164;28;19920;-81
2023/04/13 08:37:57;;;;;;;;;;;9.30;75.40;;;;;;5067755;28;19916;-83
2023/04/13 08:40:22;;;;;;;;;;;9.30;75.40;;;;;;5065283;28;20378;-83
2023/04/13 08:42:48;;;;;;;;;;;9.40;75.40;;;;;;5051558;28;19958;-82
2023/04/13 08:45:14;;;;;;;;;;;9.40;74.80;;;;;;5051071;28;20003;-83
2023/04/13 08:47:40;;;;;;;;;;;9.30;75.30;;;;;;5051279;28;20354;-86
2023/04/13 08:50:06;;;;;;;;;;;9.30;75.60;;;;;;4663025;22;20171;-86
2023/04/13 08:52:34;;;;;;;;;;;9.20;75.40;;;;;;5046237;28;20280;-86
2023/04/13 08:55:02;;;;;;;;;;;9.30;75.30;;;;;;5047091;28;19920;-85
2023/04/13 08:57:28;;;;;;;;;;;9.40;75.90;;;;;;5044129;28;19909;-86
2023/04/13 08:59:54;;;;;;;;;;;9.30;75.70;;;;;;5050093;28;19913;-86
2023/04/13 09:02:24;;;;;;;;;;;9.30;75.60;;;;;;5032152;28;20411;-86
2023/04/13 09:04:54;;;;;;;;;;;9.30;76.20;;;;;;5027674;28;19922;-86
2023/04/13 09:07:26;;;;;;;;;;;9.20;76.50;;;;;;5033083;28;20263;-87
2023/04/13 09:09:58;;;;;;;;;;;9.20;76.80;;;;;;5033467;28;19921;-87
2023/04/13 09:12:24;;;;;;;;;;;9.20;77.50;;;;;;5048446;28;19992;-87
2023/04/13 09:14:49;;;;;;;;;;;9.30;77.10;;;;;;5036013;28;19969;-87
2023/04/13 09:17:25;;;;;;;;;;;9.50;76.30;;;;;;5029229;28;19991;-87
2023/04/13 09:19:51;;;;;;;;;;;9.50;76.80;;;;;;5028495;28;19965;-87
2023/04/13 09:22:16;;;;;;;;;;;9.60;76.10;;;;;;5037055;28;19913;-87
2023/04/13 09:24:42;;;;;;;;;;;9.60;75.90;;;;;;5051041;28;20062;-86
2023/04/13 09:27:18;;;;;;;;;;;9.50;76.70;;;;;;5051849;28;19916;-86
2023/04/13 09:29:54;;;;;;;;;;;9.60;76.60;;;;;;5030287;28;19913;-86
2023/04/13 09:32:23;;;;;;;;;;;9.70;76.10;;;;;;5030799;28;20383;-86
2023/04/13 09:34:58;;;;;;;;;;;9.80;75.30;;;;;;5024401;28;20373;-88
2023/04/13 09:37:27;;;;;;;;;;;9.80;74.80;;;;;;5037966;28;19914;-84
2023/04/13 09:39:52;;;;;;;;;;;9.80;75.40;;;;;;5043465;28;19913;-85
2023/04/13 09:42:19;;;;;;;;;;;9.70;75.30;;;;;;5049040;28;19918;-85
2023/04/13 09:45:05;;;;;;;;;;;9.90;76.20;;;;;;5024730;28;19917;-85
2023/04/13 09:47:39;;;;;;;;;;;10.00;77.40;;;;;;5046967;28;20389;-85
2023/04/13 09:50:28;;;;;;;;;;;10.20;77.50;;;;;;5043091;28;20394;-84
2023/04/13 09:53:00;;;;;;;;;;;10.40;76.40;;;;;;5037394;28;20437;-84
2023/04/13 09:55:26;;;;;;;;;;;10.40;76.20;;;;;;5032063;28;19922;-84
2023/04/13 09:57:52;;;;;;;;;;;10.50;77.60;;;;;;5043698;28;20279;-84
2023/04/13 10:00:20;;;;;;;;;;;10.60;77.10;;;;;;5046647;28;19919;-85
2023/04/13 10:02:52;;;;;;;;;;;10.60;76.70;;;;;;5044787;28;19913;-84
2023/04/13 10:05:21;;;;;;;;;;;10.60;76.90;;;;;;5027432;28;19920;-85
2023/04/13 10:07:46;;;;;;;;;;;10.60;77.40;;;;;;5034710;28;20462;-85
2023/04/13 10:10:12;;;;;;;;;;;10.60;76.90;;;;;;5039590;28;19955;-84
2023/04/13 10:12:39;;;;;;;;;;;10.50;77.30;;;;;;5041872;28;19913;-85
2023/04/13 10:15:24;;;;;;;;;;;10.80;76.90;;;;;;5032364;28;19914;-85
2023/04/13 10:18:04;;;;;;;;;;;11.00;75.00;;;;;;5046717;28;20366;-86
2023/04/13 10:20:30;;;;;;;;;;;11.20;74.80;;;;;;5031153;28;19973;-86
2023/04/13 10:22:56;;;;;;;;;;;11.40;73.60;;;;;;5029008;28;19952;-85
2023/04/13 10:25:22;;;;;;;;;;;11.50;72.50;;;;;;5035687;28;20347;-86
2023/04/13 10:27:59;;;;;;;;;;;11.40;72.10;;;;;;5041193;28;20048;-85
2023/04/13 10:30:25;;;;;;;;;;;11.40;72.00;;;;;;5030293;28;19916;-85
2023/04/13 10:33:08;;;;;;;;;;;11.40;72.00;;;;;;5032813;28;19915;-84
2023/04/13 10:35:35;;;;;;;;;;;11.10;70.00;;;;;;5027991;28;19913;-85
2023/04/13 10:38:01;;;;;;;;;;;11.20;70.70;;;;;;5039869;28;20379;-85
2023/04/13 10:40:26;;;;;;;;;;;11.00;70.40;;;;;;5029713;28;19928;-86
2023/04/13 10:42:52;;;;;;;;;;;11.00;70.30;;;;;;5036831;28;19913;-86
2023/04/13 10:45:17;;;;;;;;;;;10.90;70.40;;;;;;5036673;28;19913;-86
2023/04/13 10:47:43;;;;;;;;;;;11.00;71.10;;;;;;5038459;28;19913;-86
2023/04/13 10:50:15;;;;;;;;;;;11.00;70.50;;;;;;5038465;28;20000;-86
2023/04/13 10:52:41;;;;;;;;;;;11.10;70.30;;;;;;5032023;28;19913;-85
2023/04/13 10:55:07;;;;;;;;;;;11.20;68.90;;;;;;5025857;28;20333;-85
2023/04/13 10:57:33;;;;;;;;;;;11.20;69.00;;;;;;5028028;28;19925;-84
2023/04/13 10:59:59;;;;;;;;;;;11.10;69.30;;;;;;5044043;28;19956;-86
2023/04/13 11:02:28;;;;;;;;;;;11.10;69.60;;;;;;5036955;28;19922;-86
2023/04/13 11:04:54;;;;;;;;;;;11.00;70.50;;;;;;5027333;28;20011;-86
2023/04/13 11:07:22;;;;;;;;;;;10.90;71.00;;;;;;5030863;28;20000;-85
2023/04/13 11:09:49;;;;;;;;;;;10.90;71.20;;;;;;5030569;28;20008;-87
2023/04/13 11:12:15;;;;;;;;;;;10.80;71.10;;;;;;5028760;28;19924;-87
2023/04/13 11:14:49;;;;;;;;;;;10.80;71.70;;;;;;5038082;28;19917;-86
2023/04/13 11:17:18;;;;;;;;;;;11.00;71.60;;;;;;5033030;28;19975;-86
2023/04/13 11:19:45;;;;;;;;;;;11.20;71.00;;;;;;5035821;28;19921;-87
2023/04/13 11:22:16;;;;;;;;;;;11.20;70.90;;;;;;5034077;28;19913;-86
2023/04/13 11:24:42;;;;;;;;;;;11.20;70.60;;;;;;5037788;28;19913;-87
2023/04/13 11:27:21;;;;;;;;;;;11.20;70.20;;;;;;5035873;28;20004;-86
2023/04/13 11:30:03;;;;;;;;;;;11.20;69.70;;;;;;5034385;28;19916;-86
2023/04/13 11:32:31;;;;;;;;;;;11.50;69.30;;;;;;5035546;28;19909;-86
2023/04/13 11:35:07;;;;;;;;;;;11.70;68.40;;;;;;5033764;28;19937;-86
2023/04/13 11:37:36;;;;;;;;;;;11.90;67.50;;;;;;5035597;28;19932;-86
2023/04/13 11:40:08;;;;;;;;;;;12.00;66.10;;;;;;5040578;28;20628;-86
2023/04/13 11:42:36;;;;;;;;;;;12.00;64.70;;;;;;5036494;28;19923;-86
2023/04/13 11:45:02;;;;;;;;;;;11.70;65.00;;;;;;5035397;28;19909;-86
2023/04/13 11:47:28;;;;;;;;;;;11.90;64.40;;;;;;5030658;28;19909;-86
2023/04/13 11:49:53;;;;;;;;;;;12.00;65.30;;;;;;5052724;28;20573;-86
2023/04/13 11:52:19;;;;;;;;;;;12.10;65.00;;;;;;5039766;28;20008;-86
2023/04/13 11:54:44;;;;;;;;;;;12.10;65.10;;;;;;5032278;28;19917;-86
2023/04/13 11:57:10;;;;;;;;;;;12.00;65.00;;;;;;5030119;28;19975;-87
2023/04/13 11:59:37;;;;;;;;;;;11.90;65.90;;;;;;5019588;28;19955;-86
2023/04/13 12:02:04;;;;;;;;;;;12.00;66.20;;;;;;5012514;28;19917;-87
2023/04/13 12:04:37;;;;;;;;;;;12.10;64.40;;;;;;5012960;28;19988;-87
2023/04/13 12:07:07;;;;;;;;;;;12.00;64.90;;;;;;5011793;28;19909;-86
2023/04/13 12:09:39;;;;;;;;;;;12.00;65.00;;;;;;5031738;28;19913;-87
2023/04/13 12:12:04;;;;;;;;;;;12.10;65.40;;;;;;5024894;28;19914;-87
2023/04/13 12:14:30;;;;;;;;;;;12.20;63.90;;;;;;5031503;28;20394;-87
2023/04/13 12:16:56;;;;;;;;;;;12.40;64.30;;;;;;5033138;28;19996;-86
2023/04/13 12:19:22;;;;;;;;;;;12.50;62.50;;;;;;5031619;28;19909;-87
2023/04/13 12:21:54;;;;;;;;;;;12.40;62.30;;;;;;5039824;28;19924;-87
2023/04/13 12:24:29;;;;;;;;;;;12.50;61.60;;;;;;5034528;28;19939;-86
2023/04/13 12:26:54;;;;;;;;;;;12.50;60.90;;;;;;5037707;28;20243;-87
2023/04/13 12:29:21;;;;;;;;;;;12.60;61.00;;;;;;5032521;28;19920;-88
2023/04/13 12:31:47;;;;;;;;;;;12.70;60.60;;;;;;5031229;28;20363;-88
2023/04/13 12:34:12;;;;;;;;;;;12.80;58.90;;;;;;5032534;28;19932;-88
2023/04/13 12:36:38;;;;;;;;;;;12.80;60.10;;;;;;5014541;28;19909;-87
2023/04/13 12:39:04;;;;;;;;;;;12.80;59.80;;;;;;5015002;28;19917;-87
2023/04/13 12:41:30;;;;;;;;;;;12.80;60.40;;;;;;5026152;28;19913;-86
2023/04/13 12:43:56;;;;;;;;;;;12.90;60.40;;;;;;5011833;28;19909;-87
2023/04/13 12:46:21;;;;;;;;;;;13.00;58.70;;;;;;5011343;28;20033;-87
2023/04/13 12:48:47;;;;;;;;;;;13.10;57.60;;;;;;5012594;28;20339;-88
2023/04/13 12:51:12;;;;;;;;;;;13.10;56.90;;;;;;5010947;28;19917;-87
2023/04/13 12:53:38;;;;;;;;;;;13.40;57.20;;;;;;5011318;28;19963;-86
2023/04/13 12:56:03;;;;;;;;;;;13.50;56.80;;;;;;5021672;28;19923;-87
2023/04/13 12:58:29;;;;;;;;;;;13.40;57.10;;;;;;5031328;28;19917;-87
2023/04/13 13:00:55;;;;;;;;;;;13.20;55.90;;;;;;5022593;28;19917;-87
2023/04/13 13:03:22;;;;;;;;;;;13.10;56.20;;;;;;5014439;28;19925;-87
2023/04/13 13:05:47;;;;;;;;;;;13.10;55.90;;;;;;5035996;28;20330;-88
2023/04/13 13:08:13;;;;;;;;;;;13.00;57.80;;;;;;5013359;28;19909;-86
2023/04/13 13:10:39;;;;;;;;;;;13.10;56.90;;;;;;5022073;28;19997;-86
2023/04/13 13:13:05;;;;;;;;;;;13.10;56.60;;;;;;5013160;28;19913;-87
2023/04/13 13:15:31;;;;;;;;;;;13.20;57.30;;;;;;5011058;28;19917;-87
2023/04/13 13:17:56;;;;;;;;;;;13.30;56.30;;;;;;5023450;28;19913;-86
2023/04/13 13:20:22;;;;;;;;;;;13.50;56.60;;;;;;5020033;28;20004;-87
2023/04/13 13:22:48;;;;;;;;;;;13.60;56.10;;;;;;5012674;28;19909;-86
2023/04/13 13:25:15;;;;;;;;;;;13.60;56.20;;;;;;5013175;28;19914;-86
2023/04/13 13:27:40;;;;;;;;;;;13.60;55.20;;;;;;5018142;28;19910;-86
2023/04/13 13:30:07;;;;;;;;;;;13.60;55.10;;;;;;5014609;28;19976;-86
2023/04/13 13:32:32;;;;;;;;;;;13.60;54.90;;;;;;5015054;28;19942;-86
2023/04/13 13:34:57;;;;;;;;;;;13.40;55.40;;;;;;5021936;28;20310;-87
2023/04/13 13:37:23;;;;;;;;;;;13.30;56.10;;;;;;5026769;28;19971;-86
2023/04/13 13:39:48;;;;;;;;;;;13.30;57.30;;;;;;5033799;28;19909;-86
2023/04/13 13:42:14;;;;;;;;;;;13.20;56.10;;;;;;5035410;28;19968;-87
2023/04/13 13:44:40;;;;;;;;;;;13.20;55.50;;;;;;5034159;28;19916;-86
2023/04/13 13:47:06;;;;;;;;;;;13.30;56.00;;;;;;5040818;28;19960;-87
2023/04/13 13:49:31;;;;;;;;;;;13.20;55.30;;;;;;5033030;28;19963;-87
2023/04/13 13:51:56;;;;;;;;;;;13.10;56.00;;;;;;5024933;28;19917;-86
2023/04/13 13:54:22;;;;;;;;;;;13.20;55.30;;;;;;5035214;28;19916;-87
2023/04/13 13:56:47;;;;;;;;;;;13.20;55.40;;;;;;5025310;28;20379;-87
2023/04/13 13:59:13;;;;;;;;;;;13.10;55.70;;;;;;5013766;28;19960;-87
2023/04/13 14:01:38;;;;;;;;;;;13.10;54.20;;;;;;5013733;28;19917;-87
2023/04/13 14:04:04;;;;;;;;;;;13.20;55.30;;;;;;5022382;28;19917;-87
2023/04/13 14:06:31;;;;;;;;;;;13.20;55.90;;;;;;5041976;28;19956;-87
2023/04/13 14:08:56;;;;;;;;;;;13.30;56.10;;;;;;5034747;28;19909;-87
2023/04/13 14:11:22;;;;;;;;;;;13.30;56.60;;;;;;5033689;28;19913;-86
2023/04/13 14:13:48;;;;;;;;;;;13.20;55.90;;;;;;5032625;28;19943;-87
2023/04/13 14:16:14;;;;;;;;;;;13.20;56.30;;;;;;5033500;28;19909;-87
2023/04/13 14:18:39;;;;;;;;;;;13.20;56.30;;;;;;5039140;28;19913;-87
2023/04/13 14:21:05;;;;;;;;;;;13.30;55.10;;;;;;5027587;28;19917;-87
2023/04/13 14:23:31;;;;;;;;;;;13.40;54.40;;;;;;5013298;28;19917;-87
2023/04/13 14:25:56;;;;;;;;;;;13.40;55.30;;;;;;5013039;28;19932;-86